createdAt,value
2023-05-05T00:00:14.965Z,154.13
2023-05-05T00:01:14.986Z,153.94
2023-05-05T00:02:14.988Z,154.54
2023-05-05T00:03:15.038Z,154.27
2023-05-05T00:04:15.014Z,154.30
2023-05-05T00:05:14.935Z,154.29
2023-05-05T00:06:14.930Z,153.87
2023-05-05T00:07:14.917Z,154.04
2023-05-05T00:08:14.916Z,154.10
2023-05-05T00:09:14.916Z,153.89
2023-05-05T00:10:14.915Z,152.49
2023-05-05T00:11:14.901Z,152.29
2023-05-05T00:12:14.923Z,152.79
2023-05-05T00:13:14.941Z,153.10
2023-05-05T00:14:14.877Z,152.09
2023-05-05T00:15:14.893Z,151.30
2023-05-05T00:16:14.884Z,152.58
2023-05-05T00:17:14.909Z,152.60
2023-05-05T00:18:14.863Z,150.99
2023-05-05T00:19:14.866Z,153.02
2023-05-05T00:20:14.849Z,151.76
2023-05-05T00:21:14.846Z,152.28
2023-05-05T00:22:14.829Z,152.34
2023-05-05T00:23:14.844Z,152.63
2023-05-05T00:24:14.843Z,152.04
2023-05-05T00:25:14.817Z,152.85
2023-05-05T00:26:14.797Z,153.28
2023-05-05T00:27:14.799Z,151.50
2023-05-05T00:28:14.818Z,152.31
2023-05-05T00:29:14.860Z,152.89
2023-05-05T00:30:14.862Z,152.63
2023-05-05T00:31:14.899Z,153.33
2023-05-05T00:32:14.881Z,152.10
2023-05-05T00:33:14.959Z,154.22
2023-05-05T00:34:14.899Z,153.85
2023-05-05T00:35:14.916Z,154.14
2023-05-05T00:36:14.979Z,153.15
2023-05-05T00:37:14.956Z,152.75
2023-05-05T00:38:14.954Z,153.71
2023-05-05T00:39:14.962Z,153.94
2023-05-05T00:40:14.943Z,153.97
2023-05-05T00:41:14.954Z,153.98
2023-05-05T00:42:14.996Z,154.02
2023-05-05T00:43:14.962Z,154.01
2023-05-05T00:44:14.922Z,154.17
2023-05-05T00:45:14.937Z,154.87
2023-05-05T00:46:14.965Z,155.20
2023-05-05T00:47:14.917Z,154.04
2023-05-05T00:48:14.914Z,154.31
2023-05-05T00:49:14.922Z,154.40
2023-05-05T00:50:14.889Z,154.59
2023-05-05T00:51:14.924Z,156.56
2023-05-05T00:52:14.888Z,154.11
2023-05-05T00:53:14.878Z,155.03
2023-05-05T00:54:14.864Z,153.30
2023-05-05T00:55:14.874Z,156.12
2023-05-05T00:56:14.840Z,155.67
2023-05-05T00:57:14.902Z,153.34
2023-05-05T00:58:14.864Z,153.85
2023-05-05T00:59:14.840Z,154.84
2023-05-05T01:00:14.828Z,154.99
2023-05-05T01:01:14.863Z,152.65
2023-05-05T01:02:14.822Z,152.75
2023-05-05T01:03:14.874Z,152.47
2023-05-05T01:04:14.804Z,152.09
2023-05-05T01:05:14.814Z,151.57
2023-05-05T01:06:14.789Z,150.43
2023-05-05T01:07:14.806Z,150.37
2023-05-05T01:08:14.785Z,151.38
2023-05-05T01:09:14.786Z,151.17
2023-05-05T01:10:20.119Z,150.97
2023-05-05T01:11:15.764Z,150.99
2023-05-05T01:12:14.753Z,151.24
2023-05-05T01:13:14.767Z,150.53
2023-05-05T01:14:14.782Z,150.96
2023-05-05T01:15:14.744Z,149.37
2023-05-05T01:16:14.807Z,150.64
2023-05-05T01:17:14.755Z,150.23
2023-05-05T01:18:14.733Z,150.69
2023-05-05T01:19:14.730Z,149.06
2023-05-05T01:20:14.721Z,148.85
2023-05-05T01:21:14.743Z,149.85
2023-05-05T01:22:14.710Z,150.17
2023-05-05T01:23:14.699Z,150.02
2023-05-05T01:24:14.714Z,149.30
2023-05-05T01:25:14.691Z,149.27
2023-05-05T01:26:14.673Z,149.46
2023-05-05T01:27:14.675Z,150.10
2023-05-05T01:28:14.674Z,149.85
2023-05-05T01:29:14.674Z,149.65
2023-05-05T01:30:14.663Z,148.69
2023-05-05T01:31:14.734Z,148.43
2023-05-05T01:32:14.649Z,148.56
2023-05-05T01:33:14.684Z,148.23
2023-05-05T01:34:14.641Z,148.91
2023-05-05T01:35:14.654Z,147.63
2023-05-05T01:36:14.621Z,147.82
2023-05-05T01:37:14.631Z,145.87
2023-05-05T01:38:14.626Z,146.85
2023-05-05T01:39:14.627Z,146.99
2023-05-05T01:40:14.640Z,146.86
2023-05-05T01:41:14.662Z,147.01
2023-05-05T01:42:14.676Z,146.65
2023-05-05T01:43:14.693Z,146.54
2023-05-05T01:44:14.706Z,144.83
2023-05-05T01:45:14.734Z,145.88
2023-05-05T01:46:14.878Z,145.65
2023-05-05T01:47:14.735Z,145.34
2023-05-05T01:48:14.759Z,144.83
2023-05-05T01:49:14.770Z,145.64
2023-05-05T01:50:14.789Z,146.91
2023-05-05T01:51:14.794Z,147.29
2023-05-05T01:52:14.817Z,145.86
2023-05-05T01:53:14.843Z,146.22
2023-05-05T01:54:14.884Z,146.65
2023-05-05T01:55:14.920Z,146.49
2023-05-05T01:56:14.992Z,146.74
2023-05-05T01:57:15.008Z,146.60
2023-05-05T01:58:15.032Z,146.23
2023-05-05T01:59:15.085Z,147.19
2023-05-05T02:00:15.072Z,145.25
2023-05-05T02:01:15.096Z,146.85
2023-05-05T02:02:15.072Z,145.40
2023-05-05T02:03:15.331Z,145.63
2023-05-05T02:04:15.102Z,144.26
2023-05-05T02:05:15.142Z,144.26
2023-05-05T02:06:15.158Z,146.31
2023-05-05T02:07:15.145Z,143.50
2023-05-05T02:08:15.167Z,144.83
2023-05-05T02:09:15.192Z,144.85
2023-05-05T02:10:15.181Z,144.85
2023-05-05T02:11:15.164Z,144.82
2023-05-05T02:12:15.200Z,144.84
2023-05-05T02:13:15.359Z,144.86
2023-05-05T02:14:15.164Z,145.03
2023-05-05T02:15:15.176Z,144.11
2023-05-05T02:16:15.190Z,143.60
2023-05-05T02:17:15.161Z,142.17
2023-05-05T02:18:15.177Z,142.60
2023-05-05T02:19:15.190Z,140.80
2023-05-05T02:20:15.141Z,141.98
2023-05-05T02:21:15.161Z,142.44
2023-05-05T02:22:15.130Z,141.49
2023-05-05T02:23:15.137Z,139.34
2023-05-05T02:24:15.132Z,139.25
2023-05-05T02:25:15.112Z,140.65
2023-05-05T02:26:15.099Z,139.57
2023-05-05T02:27:15.100Z,139.20
2023-05-05T02:28:15.118Z,139.22
2023-05-05T02:29:15.079Z,139.39
2023-05-05T02:30:15.080Z,138.09
2023-05-05T02:31:15.082Z,137.93
2023-05-05T02:32:15.067Z,137.09
2023-05-05T02:33:15.101Z,136.03
2023-05-05T02:34:15.094Z,136.95
2023-05-05T02:35:15.117Z,136.45
2023-05-05T02:36:15.169Z,135.82
2023-05-05T02:37:15.167Z,135.24
2023-05-05T02:38:15.184Z,134.00
2023-05-05T02:39:15.193Z,134.02
2023-05-05T02:40:15.193Z,132.81
2023-05-05T02:41:15.226Z,134.04
2023-05-05T02:42:15.275Z,133.23
2023-05-05T02:43:15.312Z,133.50
2023-05-05T02:44:15.258Z,132.92
2023-05-05T02:45:15.287Z,133.81
2023-05-05T02:46:15.317Z,132.80
2023-05-05T02:47:15.302Z,132.36
2023-05-05T02:48:15.352Z,132.82
2023-05-05T02:49:15.320Z,132.80
2023-05-05T02:50:15.356Z,133.01
2023-05-05T02:51:15.517Z,132.23
2023-05-05T02:52:15.370Z,130.95
2023-05-05T02:53:15.405Z,131.41
2023-05-05T02:54:15.469Z,132.72
2023-05-05T02:55:15.455Z,132.04
2023-05-05T02:56:15.454Z,130.24
2023-05-05T02:57:15.474Z,131.60
2023-05-05T02:58:15.483Z,131.18
2023-05-05T02:59:16.303Z,131.62
2023-05-05T03:00:15.497Z,130.80
2023-05-05T03:01:15.559Z,130.65
2023-05-05T03:02:15.563Z,130.72
2023-05-05T03:03:15.687Z,132.98
2023-05-05T03:04:15.577Z,131.12
2023-05-05T03:05:15.582Z,131.90
2023-05-05T03:06:15.618Z,132.02
2023-05-05T03:07:15.660Z,129.25
2023-05-05T03:08:15.708Z,129.99
2023-05-05T03:09:15.746Z,130.07
2023-05-05T03:10:15.846Z,131.05
2023-05-05T03:11:15.804Z,130.96
2023-05-05T03:12:15.858Z,131.67
2023-05-05T03:13:15.928Z,129.39
2023-05-05T03:14:15.866Z,128.39
2023-05-05T03:15:15.876Z,129.05
2023-05-05T03:16:15.932Z,129.41
2023-05-05T03:17:15.909Z,128.27
2023-05-05T03:18:15.930Z,127.50
2023-05-05T03:19:15.949Z,127.49
2023-05-05T03:20:15.982Z,128.29
2023-05-05T03:21:16.005Z,128.73
2023-05-05T03:22:16.031Z,129.18
2023-05-05T03:23:16.003Z,129.24
2023-05-05T03:24:15.983Z,129.23
2023-05-05T03:25:15.990Z,128.66
2023-05-05T03:26:16.012Z,129.75
2023-05-05T03:27:16.000Z,130.73
2023-05-05T03:28:16.005Z,129.94
2023-05-05T03:29:16.027Z,129.45
2023-05-05T03:30:15.994Z,129.32
2023-05-05T03:31:16.088Z,129.03
2023-05-05T03:32:16.009Z,129.16
2023-05-05T03:33:16.006Z,129.26
2023-05-05T03:34:15.978Z,128.16
2023-05-05T03:35:15.990Z,128.20
2023-05-05T03:36:15.973Z,129.02
2023-05-05T03:37:15.962Z,129.47
2023-05-05T03:38:15.976Z,128.32
2023-05-05T03:39:15.955Z,129.79
2023-05-05T03:40:15.946Z,128.83
2023-05-05T03:41:15.946Z,127.72
2023-05-05T03:42:15.943Z,128.15
2023-05-05T03:43:15.955Z,128.55
2023-05-05T03:44:15.946Z,127.71
2023-05-05T03:45:15.952Z,127.55
2023-05-05T03:46:16.134Z,127.86
2023-05-05T03:47:16.067Z,127.55
2023-05-05T03:48:16.123Z,128.56
2023-05-05T03:49:16.173Z,127.90
2023-05-05T03:50:16.196Z,129.56
2023-05-05T03:51:16.205Z,127.50
2023-05-05T03:52:16.243Z,128.03
2023-05-05T03:53:16.288Z,128.68
2023-05-05T03:54:16.307Z,128.35
2023-05-05T03:55:16.345Z,127.75
2023-05-05T03:56:16.366Z,128.60
2023-05-05T03:57:16.383Z,127.54
2023-05-05T03:58:16.403Z,127.89
2023-05-05T03:59:16.416Z,127.73
2023-05-05T04:00:16.433Z,129.10
2023-05-05T04:01:16.429Z,127.51
2023-05-05T04:02:18.473Z,127.28
2023-05-05T04:03:16.649Z,128.17
2023-05-05T04:04:16.535Z,129.12
2023-05-05T04:05:16.555Z,127.19
2023-05-05T04:06:16.547Z,129.11
2023-05-05T04:07:16.591Z,128.38
2023-05-05T04:08:16.597Z,128.52
2023-05-05T04:09:16.624Z,129.01
2023-05-05T04:10:16.621Z,129.41
2023-05-05T04:11:16.644Z,127.88
2023-05-05T04:12:16.663Z,129.53
2023-05-05T04:13:16.845Z,130.08
2023-05-05T04:14:16.718Z,130.33
2023-05-05T04:15:16.748Z,131.77
2023-05-05T04:16:16.795Z,130.34
2023-05-05T04:17:16.789Z,130.19
2023-05-05T04:18:16.826Z,131.19
2023-05-05T04:19:16.834Z,131.06
2023-05-05T04:20:16.872Z,130.22
2023-05-05T04:21:16.888Z,130.53
2023-05-05T04:22:16.904Z,131.25
2023-05-05T04:23:16.918Z,130.69
2023-05-05T04:24:16.948Z,130.88
2023-05-05T04:25:16.959Z,130.42
2023-05-05T04:26:16.991Z,131.99
2023-05-05T04:27:17.013Z,131.56
2023-05-05T04:28:17.329Z,132.11
2023-05-05T04:29:17.047Z,132.13
2023-05-05T04:30:17.080Z,134.22
2023-05-05T04:31:17.141Z,134.02
2023-05-05T04:32:17.108Z,132.96
2023-05-05T04:33:17.145Z,132.50
2023-05-05T04:34:17.160Z,132.05
2023-05-05T04:35:17.169Z,134.06
2023-05-05T04:36:17.200Z,131.13
2023-05-05T04:37:17.235Z,133.08
2023-05-05T04:38:17.275Z,131.97
2023-05-05T04:39:17.239Z,132.92
2023-05-05T04:40:17.266Z,131.64
2023-05-05T04:41:17.316Z,131.63
2023-05-05T04:42:17.302Z,133.28
2023-05-05T04:43:17.329Z,131.59
2023-05-05T04:44:17.349Z,131.74
2023-05-05T04:45:17.357Z,130.85
2023-05-05T04:46:17.482Z,131.60
2023-05-05T04:47:17.436Z,132.66
2023-05-05T04:48:17.441Z,133.20
2023-05-05T04:49:17.461Z,132.23
2023-05-05T04:50:17.580Z,132.99
2023-05-05T04:51:17.497Z,133.67
2023-05-05T04:52:17.509Z,132.44
2023-05-05T04:53:17.539Z,133.39
2023-05-05T04:54:17.578Z,134.32
2023-05-05T04:55:17.575Z,132.86
2023-05-05T04:56:17.607Z,133.50
2023-05-05T04:57:17.609Z,131.53
2023-05-05T04:58:17.647Z,133.44
2023-05-05T04:59:17.654Z,133.51
2023-05-05T05:00:17.697Z,133.21
2023-05-05T05:01:17.697Z,133.36
2023-05-05T05:02:17.837Z,133.71
2023-05-05T05:03:17.835Z,134.27
2023-05-05T05:04:17.768Z,132.87
2023-05-05T05:05:17.779Z,131.97
2023-05-05T05:06:17.790Z,131.97
2023-05-05T05:07:17.839Z,131.87
2023-05-05T05:08:17.813Z,131.36
2023-05-05T05:09:17.836Z,131.01
2023-05-05T05:10:17.856Z,130.69
2023-05-05T05:11:17.884Z,130.74
2023-05-05T05:12:17.892Z,131.23
2023-05-05T05:13:18.010Z,132.29
2023-05-05T05:14:17.960Z,132.23
2023-05-05T05:15:17.954Z,130.69
2023-05-05T05:16:18.013Z,129.98
2023-05-05T05:17:17.991Z,130.58
2023-05-05T05:18:18.118Z,130.55
2023-05-05T05:19:18.040Z,128.85
2023-05-05T05:20:18.060Z,128.66
2023-05-05T05:21:18.107Z,128.78
2023-05-05T05:22:18.103Z,129.39
2023-05-05T05:23:18.169Z,130.26
2023-05-05T05:24:18.142Z,130.78
2023-05-05T05:25:18.186Z,131.82
2023-05-05T05:26:18.222Z,131.92
2023-05-05T05:27:18.187Z,132.28
2023-05-05T05:28:18.152Z,133.12
2023-05-05T05:29:18.156Z,134.96
2023-05-05T05:30:18.148Z,137.74
2023-05-05T05:31:18.148Z,140.43
2023-05-05T05:32:18.132Z,143.29
2023-05-05T05:33:18.130Z,143.15
2023-05-05T05:34:18.142Z,143.53
2023-05-05T05:35:18.115Z,146.92
2023-05-05T05:36:18.146Z,150.47
2023-05-05T05:37:18.096Z,153.00
2023-05-05T05:38:18.105Z,156.88
2023-05-05T05:39:18.109Z,162.15
2023-05-05T05:40:18.121Z,166.55
2023-05-05T05:41:18.091Z,172.28
2023-05-05T05:42:18.081Z,177.72
2023-05-05T05:43:18.065Z,183.46
2023-05-05T05:44:18.071Z,189.59
2023-05-05T05:45:18.089Z,196.62
2023-05-05T05:46:18.102Z,206.11
2023-05-05T05:47:18.259Z,210.57
2023-05-05T05:48:18.078Z,210.97
2023-05-05T05:49:18.058Z,217.75
2023-05-05T05:50:18.043Z,222.44
2023-05-05T05:51:18.028Z,221.80
2023-05-05T05:52:18.019Z,221.97
2023-05-05T05:53:18.013Z,219.91
2023-05-05T05:54:18.018Z,196.49
2023-05-05T05:55:18.026Z,169.12
2023-05-05T05:56:17.985Z,148.21
2023-05-05T05:57:18.069Z,123.39
2023-05-05T05:58:17.987Z,108.66
2023-05-05T05:59:17.965Z,85.52
2023-05-05T06:00:17.965Z,73.15
2023-05-05T06:01:18.001Z,65.30
2023-05-05T06:02:18.005Z,55.14
2023-05-05T06:03:18.039Z,47.62
2023-05-05T06:04:18.012Z,60.43
2023-05-05T06:05:17.935Z,60.75
2023-05-05T06:06:17.933Z,66.96
2023-05-05T06:07:17.942Z,70.80
2023-05-05T06:08:17.967Z,67.44
2023-05-05T06:09:17.986Z,62.97
2023-05-05T06:10:27.566Z,60.27
2023-05-05T06:11:19.045Z,60.38
2023-05-05T06:12:17.917Z,62.62
2023-05-05T06:13:17.961Z,69.62
2023-05-05T06:14:18.890Z,84.22
2023-05-05T06:15:17.924Z,108.40
2023-05-05T06:16:17.957Z,116.30
2023-05-05T06:17:17.921Z,122.75
2023-05-05T06:18:18.032Z,135.39
2023-05-05T06:19:17.884Z,146.86
2023-05-05T06:20:17.889Z,156.10
2023-05-05T06:21:17.871Z,164.78
2023-05-05T06:22:17.857Z,172.48
2023-05-05T06:23:17.904Z,180.51
2023-05-05T06:24:17.813Z,180.84
2023-05-05T06:25:17.838Z,182.70
2023-05-05T06:26:17.795Z,187.56
2023-05-05T06:27:17.806Z,198.37
2023-05-05T06:28:17.769Z,216.87
2023-05-05T06:29:17.752Z,229.63
2023-05-05T06:30:17.796Z,238.41
2023-05-05T06:31:17.874Z,250.00
2023-05-05T06:32:17.844Z,250.01
2023-05-05T06:33:17.923Z,250.13
2023-05-05T06:34:17.945Z,250.08
2023-05-05T06:35:17.984Z,250.55
2023-05-05T06:36:18.082Z,250.00
2023-05-05T06:37:18.102Z,249.72
2023-05-05T06:38:18.135Z,250.10
2023-05-05T06:39:18.205Z,250.07
2023-05-05T06:40:18.231Z,248.96
2023-05-05T06:41:18.272Z,250.21
2023-05-05T06:42:18.325Z,250.00
2023-05-05T06:43:18.400Z,249.74
2023-05-05T06:44:18.483Z,249.37
2023-05-05T06:45:18.417Z,248.88
2023-05-05T06:46:18.575Z,249.19
2023-05-05T06:47:18.505Z,249.61
2023-05-05T06:48:18.480Z,249.66
2023-05-05T06:49:18.478Z,249.83
2023-05-05T06:50:18.448Z,249.29
2023-05-05T06:51:18.436Z,249.86
2023-05-05T06:52:18.449Z,249.69
2023-05-05T06:53:18.380Z,249.25
2023-05-05T06:54:19.196Z,248.95
2023-05-05T06:55:18.355Z,249.13
2023-05-05T06:56:18.339Z,246.71
2023-05-05T06:57:18.371Z,243.94
2023-05-05T06:58:18.456Z,242.20
2023-05-05T06:59:18.692Z,241.88
2023-05-05T07:00:18.540Z,245.72
2023-05-05T07:01:18.675Z,242.09
2023-05-05T07:02:19.024Z,236.61
2023-05-05T07:03:19.785Z,240.36
2023-05-05T07:04:18.722Z,242.93
2023-05-05T07:05:18.617Z,242.28
2023-05-05T07:06:18.773Z,237.55
2023-05-05T07:07:18.753Z,234.36
2023-05-05T07:08:18.804Z,235.20
2023-05-05T07:09:19.312Z,236.80
2023-05-05T07:10:18.994Z,235.58
2023-05-05T07:11:19.164Z,233.42
2023-05-05T07:12:19.084Z,233.01
2023-05-05T07:13:19.216Z,230.62
2023-05-05T07:14:20.095Z,229.49
2023-05-05T07:15:27.345Z,227.74
2023-05-05T07:16:20.188Z,227.47
2023-05-05T07:17:19.199Z,225.76
2023-05-05T07:18:19.159Z,222.02
2023-05-05T07:19:19.156Z,220.99
2023-05-05T07:20:19.134Z,221.35
2023-05-05T07:21:19.164Z,221.47
2023-05-05T07:22:19.111Z,219.19
2023-05-05T07:23:19.127Z,217.10
2023-05-05T07:24:19.091Z,217.20
2023-05-05T07:25:19.099Z,216.10
2023-05-05T07:26:19.174Z,214.53
2023-05-05T07:27:19.170Z,211.05
2023-05-05T07:28:19.247Z,213.51
2023-05-05T07:29:19.346Z,211.60
2023-05-05T07:30:19.859Z,210.64
2023-05-05T07:31:19.315Z,210.67
2023-05-05T07:32:19.445Z,209.91
2023-05-05T07:33:19.269Z,209.88
2023-05-05T07:34:19.342Z,210.65
2023-05-05T07:35:19.259Z,210.33
2023-05-05T07:36:19.222Z,207.97
2023-05-05T07:37:19.315Z,209.20
2023-05-05T07:38:19.180Z,207.33
2023-05-05T07:39:19.251Z,202.66
2023-05-05T07:40:19.186Z,204.32
2023-05-05T07:41:19.147Z,208.33
2023-05-05T07:42:19.269Z,208.56
2023-05-05T07:43:19.201Z,208.38
2023-05-05T07:44:19.271Z,207.29
2023-05-05T07:45:19.133Z,159.92
2023-05-05T07:46:19.317Z,156.96
2023-05-05T07:47:19.084Z,118.17
2023-05-05T07:48:19.096Z,100.06
2023-05-05T07:49:19.113Z,102.80
2023-05-05T07:50:19.028Z,84.27
2023-05-05T07:51:19.056Z,77.98
2023-05-05T07:52:21.481Z,74.07
2023-05-05T07:53:20.198Z,60.45
2023-05-05T07:54:19.060Z,44.74
2023-05-05T07:55:18.984Z,44.16
2023-05-05T07:56:20.465Z,28.31
2023-05-05T07:57:18.941Z,26.97
2023-05-05T07:58:19.056Z,28.72
2023-05-05T07:59:19.204Z,32.76
2023-05-05T08:00:19.016Z,23.03
2023-05-05T08:01:19.009Z,12.07
2023-05-05T08:02:19.184Z,7.97
2023-05-05T08:03:19.083Z,1.29
2023-05-05T08:04:19.003Z,0.00
2023-05-05T08:05:18.891Z,0.00
2023-05-05T08:06:18.861Z,8.86
2023-05-05T08:07:18.954Z,2.42
2023-05-05T08:08:19.851Z,5.43
2023-05-05T08:09:18.884Z,8.46
2023-05-05T08:10:18.932Z,11.78
2023-05-05T08:11:18.939Z,10.40
2023-05-05T08:12:18.897Z,11.00
2023-05-05T08:13:19.346Z,10.20
2023-05-05T08:14:18.972Z,7.26
2023-05-05T08:15:19.001Z,7.95
2023-05-05T08:16:18.901Z,8.43
2023-05-05T08:17:18.910Z,12.85
2023-05-05T08:18:18.851Z,15.68
2023-05-05T08:19:28.576Z,11.71
2023-05-05T08:20:19.803Z,8.09
2023-05-05T08:21:18.961Z,6.26
2023-05-05T08:22:18.942Z,3.87
2023-05-05T08:23:18.883Z,3.50
2023-05-05T08:24:18.853Z,2.27
2023-05-05T08:25:18.879Z,9.82
2023-05-05T08:26:18.852Z,19.05
2023-05-05T08:27:18.912Z,26.11
2023-05-05T08:28:18.986Z,26.15
2023-05-05T08:29:18.836Z,27.98
2023-05-05T08:30:18.856Z,28.00
2023-05-05T08:31:18.859Z,28.65
2023-05-05T08:32:18.816Z,31.10
2023-05-05T08:33:18.880Z,36.98
2023-05-05T08:34:18.866Z,43.23
2023-05-05T08:35:18.815Z,50.18
2023-05-05T08:36:18.754Z,52.69
2023-05-05T08:37:18.775Z,53.45
2023-05-05T08:38:18.739Z,55.32
2023-05-05T08:39:18.819Z,52.89
2023-05-05T08:40:18.718Z,58.32
2023-05-05T08:41:18.718Z,58.70
2023-05-05T08:42:32.874Z,59.78
2023-05-05T08:43:18.685Z,50.17
2023-05-05T08:44:18.684Z,41.52
2023-05-05T08:45:18.657Z,39.68
2023-05-05T08:46:18.870Z,44.99
2023-05-05T08:47:18.650Z,48.29
2023-05-05T08:48:18.656Z,49.25
2023-05-05T08:49:18.664Z,43.64
2023-05-05T08:50:18.661Z,42.56
2023-05-05T08:51:18.620Z,52.96
2023-05-05T08:52:18.625Z,53.01
2023-05-05T08:53:18.592Z,53.36
2023-05-05T08:54:18.685Z,58.63
2023-05-05T08:55:18.558Z,66.88
2023-05-05T08:56:18.559Z,81.15
2023-05-05T08:57:18.593Z,89.49
2023-05-05T08:58:18.527Z,99.80
2023-05-05T08:59:18.531Z,100.05
2023-05-05T09:00:18.514Z,101.72
2023-05-05T09:01:18.548Z,106.31
2023-05-05T09:02:18.610Z,100.50
2023-05-05T09:03:18.519Z,102.12
2023-05-05T09:04:18.473Z,100.52
2023-05-05T09:05:18.460Z,102.00
2023-05-05T09:06:18.441Z,105.13
2023-05-05T09:07:18.428Z,110.68
2023-05-05T09:08:18.376Z,116.60
2023-05-05T09:09:18.378Z,119.86
2023-05-05T09:10:18.343Z,122.99
2023-05-05T09:11:18.339Z,127.04
2023-05-05T09:12:18.313Z,124.63
2023-05-05T09:13:18.380Z,126.57
2023-05-05T09:14:18.349Z,125.70
2023-05-05T09:15:18.465Z,118.08
2023-05-05T09:16:18.480Z,121.43
2023-05-05T09:17:18.425Z,119.59
2023-05-05T09:18:18.477Z,120.70
2023-05-05T09:19:18.389Z,118.79
2023-05-05T09:20:18.371Z,119.40
2023-05-05T09:21:18.371Z,123.26
2023-05-05T09:22:18.328Z,119.20
2023-05-05T09:23:18.343Z,114.86
2023-05-05T09:24:18.299Z,110.38
2023-05-05T09:25:18.293Z,115.52
2023-05-05T09:26:18.274Z,115.72
2023-05-05T09:27:18.309Z,113.78
2023-05-05T09:28:18.341Z,120.21
2023-05-05T09:29:18.423Z,124.22
2023-05-05T09:30:18.489Z,126.45
2023-05-05T09:31:18.540Z,132.28
2023-05-05T09:32:18.525Z,134.42
2023-05-05T09:33:18.548Z,133.59
2023-05-05T09:34:18.645Z,138.21
2023-05-05T09:35:18.602Z,141.32
2023-05-05T09:36:18.629Z,144.35
2023-05-05T09:37:18.660Z,144.91
2023-05-05T09:38:18.673Z,144.61
2023-05-05T09:39:18.651Z,144.64
2023-05-05T09:40:18.646Z,145.02
2023-05-05T09:41:18.569Z,145.86
2023-05-05T09:42:18.544Z,146.20
2023-05-05T09:43:19.386Z,143.25
2023-05-05T09:44:18.502Z,146.10
2023-05-05T09:45:18.596Z,152.16
2023-05-05T09:46:18.487Z,157.06
2023-05-05T09:47:29.080Z,151.30
2023-05-05T09:48:19.423Z,149.37
2023-05-05T09:49:18.480Z,147.26
2023-05-05T09:50:18.976Z,149.04
2023-05-05T09:51:18.491Z,152.01
2023-05-05T09:52:18.307Z,157.98
2023-05-05T09:53:18.285Z,162.00
2023-05-05T09:54:18.336Z,165.22
2023-05-05T09:55:18.272Z,169.31
2023-05-05T09:56:18.252Z,174.40
2023-05-05T09:57:18.212Z,179.70
2023-05-05T09:58:18.217Z,186.86
2023-05-05T09:59:18.163Z,191.39
2023-05-05T10:00:18.128Z,195.07
2023-05-05T10:01:18.148Z,198.20
2023-05-05T10:02:18.093Z,195.25
2023-05-05T10:03:18.163Z,193.82
2023-05-05T10:04:18.051Z,192.47
2023-05-05T10:05:18.106Z,192.46
2023-05-05T10:06:18.104Z,194.33
2023-05-05T10:07:17.993Z,198.68
2023-05-05T10:08:17.986Z,206.25
2023-05-05T10:09:17.924Z,206.52
2023-05-05T10:10:17.936Z,202.56
2023-05-05T10:11:17.891Z,203.28
2023-05-05T10:12:17.905Z,209.46
2023-05-05T10:13:17.889Z,214.86
2023-05-05T10:14:17.839Z,219.43
2023-05-05T10:15:17.873Z,223.91
2023-05-05T10:16:17.838Z,225.60
2023-05-05T10:17:17.756Z,228.15
2023-05-05T10:18:17.755Z,232.03
2023-05-05T10:19:17.731Z,235.36
2023-05-05T10:20:17.946Z,238.56
2023-05-05T10:21:17.714Z,239.70
2023-05-05T10:22:17.784Z,241.63
2023-05-05T10:23:17.705Z,242.33
2023-05-05T10:24:17.710Z,243.45
2023-05-05T10:25:17.727Z,242.93
2023-05-05T10:26:17.695Z,244.73
2023-05-05T10:27:17.680Z,244.99
2023-05-05T10:28:17.660Z,247.79
2023-05-05T10:29:17.662Z,250.00
2023-05-05T10:30:17.679Z,249.85
2023-05-05T10:31:25.672Z,249.95
2023-05-05T10:32:46.674Z,250.05
2023-05-05T10:34:18.598Z,250.19
2023-05-05T10:35:17.537Z,250.93
2023-05-05T10:36:17.566Z,252.65
2023-05-05T10:37:17.468Z,255.04
2023-05-05T10:38:17.477Z,258.91
2023-05-05T10:39:17.400Z,251.03
2023-05-05T10:40:17.361Z,248.70
2023-05-05T10:41:17.338Z,250.00
2023-05-05T10:42:17.341Z,249.33
2023-05-05T10:43:17.280Z,249.87
2023-05-05T10:44:17.314Z,249.50
2023-05-05T10:45:17.253Z,249.46
2023-05-05T10:46:17.215Z,250.00
2023-05-05T10:47:17.148Z,249.86
2023-05-05T10:48:17.191Z,248.37
2023-05-05T10:49:17.081Z,245.72
2023-05-05T10:50:17.039Z,245.52
2023-05-05T10:51:27.394Z,245.36
2023-05-05T10:52:16.986Z,244.76
2023-05-05T10:53:16.943Z,243.88
2023-05-05T10:54:17.086Z,244.47
2023-05-05T10:55:16.995Z,244.04
2023-05-05T10:56:16.837Z,243.55
2023-05-05T10:57:16.839Z,243.13
2023-05-05T10:58:16.774Z,243.28
2023-05-05T10:59:16.740Z,243.46
2023-05-05T11:00:16.712Z,245.29
2023-05-05T11:01:16.721Z,245.39
2023-05-05T11:02:16.640Z,246.98
2023-05-05T11:03:16.697Z,248.76
2023-05-05T11:04:16.583Z,248.36
2023-05-05T11:05:16.560Z,248.73
2023-05-05T11:06:16.503Z,248.53
2023-05-05T11:07:16.467Z,249.24
2023-05-05T11:08:16.453Z,250.00
2023-05-05T11:09:16.411Z,248.89
2023-05-05T11:10:16.517Z,245.34
2023-05-05T11:11:16.350Z,243.05
2023-05-05T11:12:16.351Z,240.38
2023-05-05T11:13:16.374Z,236.90
2023-05-05T11:14:16.306Z,235.66
2023-05-05T11:15:16.285Z,235.89
2023-05-05T11:16:16.328Z,236.53
2023-05-05T11:17:16.187Z,223.20
2023-05-05T11:18:16.190Z,171.22
2023-05-05T11:19:16.122Z,152.78
2023-05-05T11:20:16.085Z,156.72
2023-05-05T11:21:16.096Z,161.48
2023-05-05T11:22:16.013Z,161.66
2023-05-05T11:23:16.704Z,161.81
2023-05-05T11:24:15.945Z,163.17
2023-05-05T11:25:15.926Z,166.28
2023-05-05T11:26:15.926Z,171.47
2023-05-05T11:27:15.849Z,181.35
2023-05-05T11:28:15.867Z,185.90
2023-05-05T11:29:15.834Z,187.40
2023-05-05T11:30:15.784Z,190.49
2023-05-05T11:31:15.814Z,193.23
2023-05-05T11:32:15.838Z,196.01
2023-05-05T11:33:15.655Z,198.67
2023-05-05T11:34:15.623Z,201.22
2023-05-05T11:35:15.599Z,200.93
2023-05-05T11:36:15.592Z,201.01
2023-05-05T11:37:15.548Z,201.83
2023-05-05T11:38:15.529Z,204.65
2023-05-05T11:39:15.477Z,209.28
2023-05-05T11:40:15.456Z,213.42
2023-05-05T11:41:15.413Z,208.74
2023-05-05T11:42:15.475Z,202.66
2023-05-05T11:43:15.363Z,198.10
2023-05-05T11:44:15.345Z,199.83
2023-05-05T11:45:15.303Z,201.28
2023-05-05T11:46:15.291Z,200.64
2023-05-05T11:47:15.208Z,200.74
2023-05-05T11:48:15.217Z,201.39
2023-05-05T11:49:15.149Z,198.64
2023-05-05T11:50:15.106Z,193.34
2023-05-05T11:51:15.068Z,193.61
2023-05-05T11:52:15.037Z,192.67
2023-05-05T11:53:14.997Z,188.46
2023-05-05T11:54:14.971Z,184.25
2023-05-05T11:55:14.940Z,183.32
2023-05-05T11:56:14.905Z,182.47
2023-05-05T11:57:14.878Z,179.43
2023-05-05T11:58:15.006Z,177.06
2023-05-05T11:59:14.809Z,176.35
2023-05-05T12:00:14.780Z,175.27
2023-05-05T12:01:14.742Z,179.18
2023-05-05T12:02:14.727Z,179.83
2023-05-05T12:03:14.749Z,179.61
2023-05-05T12:04:14.755Z,180.80
2023-05-05T12:05:14.631Z,183.40
2023-05-05T12:06:14.595Z,184.24
2023-05-05T12:07:14.565Z,182.21
2023-05-05T12:08:14.568Z,182.25
2023-05-05T12:09:14.516Z,183.21
2023-05-05T12:10:14.487Z,184.28
2023-05-05T12:11:14.461Z,182.75
2023-05-05T12:12:14.423Z,181.16
2023-05-05T12:13:14.443Z,181.25
2023-05-05T12:14:14.437Z,181.84
2023-05-05T12:15:14.372Z,183.56
2023-05-05T12:16:14.370Z,186.63
2023-05-05T12:17:14.297Z,190.52
2023-05-05T12:18:14.268Z,190.36
2023-05-05T12:19:14.227Z,189.13
2023-05-05T12:20:14.278Z,188.37
2023-05-05T12:21:14.191Z,188.71
2023-05-05T12:22:14.160Z,187.54
2023-05-05T12:23:14.124Z,186.18
2023-05-05T12:24:14.099Z,183.84
2023-05-05T12:25:14.074Z,183.72
2023-05-05T12:26:14.029Z,183.76
2023-05-05T12:27:14.021Z,183.03
2023-05-05T12:28:13.988Z,181.25
2023-05-05T12:29:13.972Z,179.43
2023-05-05T12:30:14.121Z,180.61
2023-05-05T12:31:13.990Z,179.98
2023-05-05T12:32:14.129Z,176.79